< < Back
Terminal Aerodrome Forecast


Current Version              Previous Versions:   1  2  3  4  5  6  7  8  9  

Terminal Aerodrome Forecast

446
FTUS42 KJAX 041722
TAFGNV
TAF
KGNV 041722Z 0418/0518 18003KT 5SM -RA VCTS FEW020 BKN030CB OVC040
      TEMPO 0418/0419 VRB15G25KT 3SM TSRA BR BKN030CB OVC070
     FM041900 29007KT P6SM VCSH FEW030 BKN045
     FM042300 28007KT P6SM FEW045 SCT130 BKN250
     FM051500 30015G21KT P6SM SKC=

Latest METAR

302
SAUS70 KWBC 051400 RRE
MTRGNV
METAR KGNV 051353Z 33010KT 10SM CLR 21/09 A2980 RMK AO2 SLP089
T02060094


USA.gov is the U.S. government's official web portal to all federal, state and local government web resources and services.